This is the latest recevied weather packets stored in our database for station/object KF0PEC-15. If no packets are shown the sender has not sent any weather packets the latest 10 day(s).
| Time | Temp. | Humidity | Pressure | Rain* | Wind** | Luminosity | Snow |
|---|---|---|---|---|---|---|---|
| 1777902125 | 9.44° C | 59% | 1011.9 hPa | 0 mm | - | 969 W/m² | - |
| 1777901620 | 8.33° C | 61% | 1012.7 hPa | 0 mm | - | 827 W/m² | - |
| 1777901105 | 7.78° C | 65% | 1013.4 hPa | 0 mm | - | 746 W/m² | - |
| 1777900570 | 7.22° C | 65% | 1013.6 hPa | 0 mm | - | 739 W/m² | - |
| 1777900005 | 7.22° C | 65% | 1014 hPa | 0 mm | - | 619 W/m² | - |
| 1777899465 | 6.67° C | 65% | 1014.2 hPa | 0 mm | - | 398 W/m² | - |
| 1777898985 | 6.67° C | 63% | 1014.3 hPa | 0 mm | - | 281 W/m² | - |
| 1777898420 | 6.67° C | 61% | 1014.3 hPa | 0 mm | - | 167 W/m² | - |
| 1777897865 | 6.11° C | 62% | 1014.7 hPa | 0 mm | - | 149 W/m² | - |
| 1777897348 | 6.11° C | 62% | 1014.9 hPa | 0 mm | - | 852 W/m² | - |
| 1777896775 | 5.56° C | 63% | 1015.1 hPa | 0 mm | - | 462 W/m² | - |
| 1777896245 | 5.56° C | 65% | 1015.4 hPa | 0 mm | - | 180 W/m² | - |
| 1777895730 | 5° C | 68% | 1015.9 hPa | 0 mm | - | 45 W/m² | - |
| 1777895235 | 5° C | 67% | 1015.9 hPa | 0 mm | - | 16 W/m² | - |
| 1777894745 | 5° C | 69% | 1015.6 hPa | 0 mm | - | 0 W/m² | - |
| 1777894210 | 5° C | 66% | 1015.4 hPa | 0 mm | - | 0 W/m² | - |
| 1777893715 | 5° C | 65% | 1015.6 hPa | 0 mm | - | 0 W/m² | - |
| 1777893220 | 5° C | 65% | 1015.6 hPa | 0 mm | - | 0 W/m² | - |
| 1777892688 | 5° C | 67% | 1015.9 hPa | 0 mm | - | 0 W/m² | - |
| 1777892195 | 5° C | 67% | 1015.8 hPa | 0 mm | - | 0 W/m² | - |
| 1777891655 | 5° C | 67% | 1015.9 hPa | 0 mm | - | 0 W/m² | - |
| 1777891088 | 5° C | 65% | 1015.8 hPa | 0 mm | - | 0 W/m² | - |
| 1777890585 | 5° C | 65% | 1015.9 hPa | 0 mm | - | 0 W/m² | - |
| 1777890040 | 5° C | 65% | 1016 hPa | 0 mm | - | 0 W/m² | - |
| 1777889500 | 5.56° C | 64% | 1015.8 hPa | 0 mm | - | 0 W/m² | - |
* Rain latest hour (hover to see other rain measurements)
** Current wind speed in m/s (hover to see current wind gust speed)